Terminal Aerodrome Forecast
Issued by NWS

Home | Current Version | Previous Version | Text Only | Print | Product List | Glossary Off
Versions: 1 2 3 4 5 6 7 8 9 10 11 12 13 14 15 16 17 18 19 20 21 22 23 24 25 26 27 28 29 30 31 32 33 34 35 36 37 38 39 40 41 42 43 44 45 46 47 48 49

000
FTUS43 KGRB 211300 AAA
TAFRHI
TAF AMD
KRHI 211346Z 2114/2212 11004KT P6SM OVC005
      TEMPO 2114/2116 4SM BR SCT005 BKN040
     FM211600 11005KT P6SM VCSH SCT015 BKN040
      TEMPO 2116/2120 3SM -SHRA BR BKN015
     FM212000 10006KT P6SM -SHRA BKN035 OVC070
      TEMPO 2120/2124 2SM TSRA BKN020CB OVC035
     FM220000 12004KT 4SM BR SCT015 BKN035
     FM220400 VRB03KT 1SM BR BKN003 BKN010=

USA.gov is the U.S. government's official web portal to all federal, state and local government web resources and services.